Time;durP1;ratioP1;P1;durP2;ratioP2;P2;SDS_P1;SDS_P2;PMS_P1;PMS_P2;Temp;Humidity;BMP_temperature;BMP_pressure;BME280_temperature;BME280_humidity;BME280_pressure;Samples;Min_cycle;Max_cycle;Signal;HPM_P1;HPM_P2
2024/01/19 00:01:56;;;;;;;88.03;25.00;;;-0.40;99.90;;;;;;5055243;28;20465;-60
2024/01/19 00:04:22;;;;;;;52.20;23.97;;;-0.40;99.90;;;;;;5055211;28;20453;-60
2024/01/19 00:06:50;;;;;;;54.07;23.90;;;-0.40;99.90;;;;;;5053642;28;20796;-59
2024/01/19 00:09:18;;;;;;;47.07;22.67;;;-0.30;99.90;;;;;;5054594;28;20800;-60
2024/01/19 00:11:44;;;;;;;54.17;24.17;;;-0.30;99.90;;;;;;5054794;28;20523;-59
2024/01/19 00:14:11;;;;;;;45.40;23.27;;;-0.40;99.90;;;;;;5054942;28;20555;-60
2024/01/19 00:16:42;;;;;;;47.93;22.80;;;-0.30;99.90;;;;;;5054980;28;20766;-59
2024/01/19 00:19:09;;;;;;;60.67;24.27;;;-0.30;99.90;;;;;;5054817;28;20426;-59
2024/01/19 00:21:42;;;;;;;50.87;21.83;;;-0.30;99.90;;;;;;5054620;28;20469;-59
2024/01/19 00:24:10;;;;;;;67.50;24.23;;;-0.30;99.90;;;;;;5054958;28;20422;-60
2024/01/19 00:26:37;;;;;;;48.63;22.63;;;-0.30;99.90;;;;;;5054841;28;20441;-59
2024/01/19 00:29:04;;;;;;;52.53;22.27;;;-0.30;99.90;;;;;;5054786;28;20542;-60
2024/01/19 00:31:31;;;;;;;90.63;22.60;;;-0.20;99.90;;;;;;5054521;28;20991;-60
2024/01/19 00:33:57;;;;;;;60.30;24.03;;;-0.20;99.90;;;;;;5054565;28;20535;-59
2024/01/19 00:36:24;;;;;;;79.67;24.33;;;-0.20;99.90;;;;;;5054401;28;20936;-60
2024/01/19 00:38:52;;;;;;;80.80;25.87;;;-0.20;99.90;;;;;;5054897;28;20446;-59
2024/01/19 00:41:20;;;;;;;109.17;22.53;;;-0.20;99.90;;;;;;5055125;28;20470;-60
2024/01/19 00:43:47;;;;;;;112.47;26.40;;;-0.20;99.90;;;;;;5054407;28;20533;-60
2024/01/19 00:46:14;;;;;;;72.53;26.67;;;-0.30;99.90;;;;;;5054768;28;20824;-60
2024/01/19 00:48:40;;;;;;;65.33;23.97;;;-0.30;99.90;;;;;;5054391;28;20449;-59
2024/01/19 00:51:07;;;;;;;94.93;26.60;;;-0.30;99.90;;;;;;5054357;28;20489;-59
2024/01/19 00:53:34;;;;;;;77.07;23.77;;;-0.30;99.90;;;;;;5053972;28;20489;-59
2024/01/19 00:56:00;;;;;;;58.30;24.70;;;-0.40;99.90;;;;;;5054376;28;20453;-59
2024/01/19 00:58:29;;;;;;;68.10;25.30;;;-0.40;99.90;;;;;;5053759;28;20438;-59
2024/01/19 01:00:56;;;;;;;70.43;26.93;;;-0.40;99.90;;;;;;5053999;28;21003;-60
2024/01/19 01:03:23;;;;;;;52.63;26.90;;;-0.30;99.90;;;;;;5054279;28;20449;-59
2024/01/19 01:05:50;;;;;;;87.83;25.63;;;-0.30;99.90;;;;;;5053805;28;21062;-59
2024/01/19 01:08:17;;;;;;;83.50;27.20;;;-0.40;99.90;;;;;;5054329;28;20438;-59
2024/01/19 01:10:45;;;;;;;67.87;25.77;;;-0.40;99.90;;;;;;5054387;28;20500;-59
2024/01/19 01:13:12;;;;;;;101.37;27.67;;;-0.40;99.90;;;;;;5054419;28;20815;-59
2024/01/19 01:15:40;;;;;;;61.20;27.00;;;-0.40;99.90;;;;;;5054704;28;20450;-59
2024/01/19 01:18:06;;;;;;;77.27;26.07;;;-0.40;99.90;;;;;;5054472;28;20437;-59
2024/01/19 01:20:33;;;;;;;51.47;24.40;;;-0.40;99.90;;;;;;5054736;28;21015;-59
2024/01/19 01:23:00;;;;;;;55.83;24.63;;;-0.40;99.90;;;;;;5055761;28;20465;-59
2024/01/19 01:25:26;;;;;;;47.00;25.60;;;-0.40;99.90;;;;;;5055288;28;20449;-59
2024/01/19 01:27:53;;;;;;;53.70;26.57;;;-0.40;99.90;;;;;;5056140;28;20442;-59
2024/01/19 01:30:20;;;;;;;70.73;27.10;;;-0.30;99.90;;;;;;5054751;28;20465;-59
2024/01/19 01:32:48;;;;;;;56.47;28.00;;;-0.30;99.90;;;;;;5055629;28;20446;-59
2024/01/19 01:35:14;;;;;;;55.43;26.57;;;-0.30;99.90;;;;;;5055736;28;20488;-60
2024/01/19 01:37:41;;;;;;;52.13;26.90;;;-0.30;99.90;;;;;;5054456;28;20441;-59
2024/01/19 01:40:11;;;;;;;57.67;26.13;;;-0.20;99.90;;;;;;5054373;28;20470;-59
2024/01/19 01:42:38;;;;;;;53.37;25.03;;;-0.10;99.90;;;;;;5054827;28;20484;-59
2024/01/19 01:45:05;;;;;;;49.20;27.43;;;-0.10;99.90;;;;;;5053800;28;20449;-59
2024/01/19 01:47:34;;;;;;;49.07;24.47;;;-0.10;99.90;;;;;;5054034;28;20588;-59
2024/01/19 01:50:02;;;;;;;53.53;26.90;;;0.00;99.90;;;;;;5053340;28;20445;-59
2024/01/19 01:52:29;;;;;;;52.57;28.93;;;-0.10;99.90;;;;;;5053404;28;20449;-59
2024/01/19 01:54:56;;;;;;;48.50;26.83;;;-0.10;99.90;;;;;;5053331;28;20478;-59
2024/01/19 01:57:25;;;;;;;50.30;27.23;;;-0.10;99.90;;;;;;5053696;28;20792;-59
2024/01/19 01:59:53;;;;;;;50.37;24.23;;;-0.10;99.90;;;;;;5052977;28;20948;-59
2024/01/19 02:02:20;;;;;;;60.57;25.83;;;-0.30;99.90;;;;;;5053225;28;20445;-59
2024/01/19 02:04:47;;;;;;;61.63;27.23;;;-0.30;99.90;;;;;;5052779;28;20932;-59
2024/01/19 02:07:15;;;;;;;51.30;28.87;;;-0.30;99.90;;;;;;5053094;28;20453;-59
2024/01/19 02:09:43;;;;;;;51.07;28.03;;;-0.30;99.90;;;;;;5053241;28;20449;-59
2024/01/19 02:12:10;;;;;;;47.53;23.93;;;-0.20;99.90;;;;;;5053248;28;20473;-59
2024/01/19 02:14:36;;;;;;;48.37;26.33;;;-0.20;99.90;;;;;;5053095;28;20477;-59
2024/01/19 02:17:03;;;;;;;49.63;24.80;;;-0.20;99.90;;;;;;5053387;28;20452;-59
2024/01/19 02:19:30;;;;;;;59.00;24.87;;;-0.10;99.90;;;;;;5052968;28;20444;-59
2024/01/19 02:21:56;;;;;;;53.97;26.00;;;-0.10;99.90;;;;;;5053047;28;20462;-59
2024/01/19 02:24:25;;;;;;;53.70;26.50;;;-0.10;99.90;;;;;;5053028;28;20445;-59
2024/01/19 02:26:52;;;;;;;49.07;23.83;;;0.00;99.90;;;;;;5053199;28;20448;-59
2024/01/19 02:29:20;;;;;;;51.20;24.53;;;0.00;99.90;;;;;;5053061;28;20456;-59
2024/01/19 02:31:47;;;;;;;51.80;23.20;;;0.10;99.90;;;;;;5056590;28;20572;-59
2024/01/19 02:34:13;;;;;;;47.93;22.60;;;0.00;99.90;;;;;;5056695;28;20530;-59
2024/01/19 02:36:40;;;;;;;43.23;22.50;;;-0.10;99.90;;;;;;5056505;28;20943;-59
2024/01/19 02:39:07;;;;;;;42.97;20.97;;;-0.10;99.90;;;;;;5056754;28;20450;-59
2024/01/19 02:41:35;;;;;;;49.00;21.83;;;0.00;99.90;;;;;;5056165;28;20503;-59
2024/01/19 02:44:01;;;;;;;55.53;23.87;;;0.10;99.90;;;;;;5056578;28;20812;-59
2024/01/19 02:46:28;;;;;;;49.33;22.40;;;0.00;99.90;;;;;;5056494;28;20445;-58
2024/01/19 02:48:55;;;;;;;44.17;22.23;;;0.00;99.90;;;;;;5057184;28;20837;-58
2024/01/19 02:51:21;;;;;;;43.27;22.37;;;0.10;99.90;;;;;;5056033;28;20869;-58
2024/01/19 02:53:48;;;;;;;47.63;23.47;;;0.10;99.90;;;;;;5056355;28;20445;-59
2024/01/19 02:56:15;;;;;;;52.17;24.70;;;0.20;99.90;;;;;;5056616;28;20449;-58
2024/01/19 02:58:43;;;;;;;43.00;22.80;;;0.20;99.90;;;;;;5055899;28;20971;-58
2024/01/19 03:01:10;;;;;;;47.73;23.27;;;0.30;99.90;;;;;;5055700;28;20975;-59
2024/01/19 03:03:36;;;;;;;51.83;23.07;;;0.30;99.90;;;;;;5056158;28;20445;-58
2024/01/19 03:06:04;;;;;;;50.83;23.07;;;0.30;99.90;;;;;;5056118;28;20437;-59
2024/01/19 03:08:30;;;;;;;42.40;21.60;;;0.20;99.90;;;;;;5055743;28;20944;-58
2024/01/19 03:10:57;;;;;;;44.77;22.23;;;0.30;99.90;;;;;;5055738;28;20472;-58
2024/01/19 03:13:24;;;;;;;47.40;21.57;;;0.40;99.90;;;;;;5056080;28;20453;-59
2024/01/19 03:15:52;;;;;;;44.63;20.90;;;0.40;99.90;;;;;;5055851;28;20484;-59
2024/01/19 03:18:19;;;;;;;44.73;21.63;;;0.40;99.90;;;;;;5055893;28;20453;-59
2024/01/19 03:20:45;;;;;;;39.87;20.97;;;0.50;99.90;;;;;;5055875;28;20501;-59
2024/01/19 03:23:12;;;;;;;41.90;25.00;;;0.50;99.90;;;;;;5055820;28;20484;-59
2024/01/19 03:25:39;;;;;;;44.33;23.40;;;0.50;99.90;;;;;;5055934;28;20441;-58
2024/01/19 03:28:06;;;;;;;41.33;20.63;;;0.50;99.90;;;;;;5056056;28;20445;-58
2024/01/19 03:30:33;;;;;;;46.53;23.70;;;0.60;99.90;;;;;;5055773;28;20470;-59
2024/01/19 03:33:01;;;;;;;47.37;22.67;;;0.70;99.90;;;;;;5055638;28;20449;-58
2024/01/19 03:35:27;;;;;;;49.27;22.90;;;0.70;99.90;;;;;;5055243;28;20480;-60
2024/01/19 03:37:54;;;;;;;38.77;19.33;;;0.80;99.90;;;;;;5055698;28;20808;-58
2024/01/19 03:40:21;;;;;;;39.87;21.30;;;0.90;99.90;;;;;;5055207;28;20472;-59
2024/01/19 03:42:48;;;;;;;47.37;22.27;;;0.90;99.90;;;;;;5055382;28;20943;-59
2024/01/19 03:45:15;;;;;;;45.53;21.50;;;0.90;99.90;;;;;;5055396;28;20473;-59
2024/01/19 03:47:42;;;;;;;48.07;24.97;;;0.90;99.90;;;;;;5055467;28;20446;-58
2024/01/19 03:50:10;;;;;;;54.13;23.50;;;1.00;99.90;;;;;;5055174;28;20473;-59
2024/01/19 03:52:38;;;;;;;44.90;25.20;;;1.00;99.90;;;;;;5054717;28;20512;-59
2024/01/19 03:55:05;;;;;;;41.37;21.17;;;1.10;99.90;;;;;;5054796;28;21037;-59
2024/01/19 03:57:31;;;;;;;51.53;22.50;;;1.10;99.90;;;;;;5055107;28;20442;-59
2024/01/19 03:59:58;;;;;;;45.10;22.77;;;1.10;99.90;;;;;;5054735;28;20441;-59
2024/01/19 04:02:25;;;;;;;44.00;21.10;;;1.10;99.90;;;;;;5055079;28;20820;-59
2024/01/19 04:04:51;;;;;;;47.40;21.17;;;1.10;99.90;;;;;;5055112;28;20442;-58
2024/01/19 04:07:19;;;;;;;45.50;21.27;;;1.10;99.90;;;;;;5054762;28;20970;-59
2024/01/19 04:09:46;;;;;;;39.40;21.30;;;1.10;99.90;;;;;;5055561;28;20469;-58
2024/01/19 04:12:14;;;;;;;36.07;20.77;;;1.10;99.90;;;;;;5054474;28;21041;-59
2024/01/19 04:14:42;;;;;;;44.57;21.63;;;1.10;99.90;;;;;;5054793;28;20520;-58
2024/01/19 04:17:09;;;;;;;52.80;23.43;;;1.10;99.90;;;;;;5054726;28;20473;-58
2024/01/19 04:19:35;;;;;;;46.70;23.43;;;1.10;99.90;;;;;;5054666;28;20442;-58
2024/01/19 04:22:02;;;;;;;54.83;22.30;;;1.10;99.90;;;;;;5054515;28;20465;-59
2024/01/19 04:24:30;;;;;;;47.53;23.07;;;1.10;99.90;;;;;;5054639;28;20452;-58
2024/01/19 04:26:57;;;;;;;47.10;22.87;;;1.10;99.90;;;;;;5054519;28;20449;-59
2024/01/19 04:29:24;;;;;;;48.37;23.50;;;1.20;99.90;;;;;;5054084;28;20448;-58
2024/01/19 04:31:52;;;;;;;41.07;21.20;;;1.20;99.90;;;;;;5054348;28;20465;-59
2024/01/19 04:34:18;;;;;;;48.73;23.07;;;1.10;99.90;;;;;;5057840;28;20473;-59
2024/01/19 04:36:45;;;;;;;46.97;24.20;;;1.10;99.90;;;;;;5057034;28;20449;-59
2024/01/19 04:39:12;;;;;;;46.97;21.13;;;1.00;99.90;;;;;;5056273;28;20437;-58
2024/01/19 04:41:40;;;;;;;48.73;22.97;;;1.10;99.90;;;;;;5055443;28;20464;-59
2024/01/19 04:44:07;;;;;;;43.83;22.70;;;1.00;99.90;;;;;;5054801;28;20445;-59
2024/01/19 04:46:34;;;;;;;46.87;23.80;;;0.90;99.90;;;;;;5054372;28;20445;-59
2024/01/19 04:49:00;;;;;;;41.63;21.97;;;0.90;99.90;;;;;;5054324;28;20944;-58
2024/01/19 04:51:27;;;;;;;40.93;20.97;;;0.90;99.90;;;;;;5054214;28;20462;-59
2024/01/19 04:53:54;;;;;;;43.83;21.30;;;0.90;99.90;;;;;;5053813;28;20896;-58
2024/01/19 04:56:20;;;;;;;41.70;21.00;;;0.90;99.90;;;;;;5054353;28;20555;-59
2024/01/19 04:58:48;;;;;;;39.20;20.33;;;0.90;99.90;;;;;;5054348;28;20469;-59
2024/01/19 05:01:17;;;;;;;40.70;19.40;;;0.90;99.90;;;;;;5054258;28;20841;-59
2024/01/19 05:03:44;;;;;;;34.23;18.50;;;0.90;99.90;;;;;;5054217;28;20449;-59
2024/01/19 05:06:12;;;;;;;44.93;21.40;;;0.80;99.90;;;;;;5054077;28;20442;-59
2024/01/19 05:08:39;;;;;;;38.13;18.90;;;0.90;99.90;;;;;;5053742;28;20974;-59
2024/01/19 05:11:05;;;;;;;37.70;19.07;;;0.90;99.90;;;;;;5054000;28;20469;-59
2024/01/19 05:13:32;;;;;;;40.90;20.27;;;0.90;99.90;;;;;;5053984;28;20465;-59
2024/01/19 05:16:00;;;;;;;36.27;20.27;;;0.80;99.90;;;;;;5053858;28;20230;-59
2024/01/19 05:18:26;;;;;;;33.07;18.63;;;0.90;99.90;;;;;;5054052;28;20453;-59
2024/01/19 05:20:53;;;;;;;49.40;20.27;;;0.90;99.90;;;;;;5053786;28;20472;-59
2024/01/19 05:23:21;;;;;;;35.50;18.37;;;0.80;99.90;;;;;;5053834;28;20441;-59
2024/01/19 05:25:47;;;;;;;35.50;19.20;;;0.90;99.90;;;;;;5053979;28;20437;-59
2024/01/19 05:28:14;;;;;;;38.90;20.33;;;0.70;99.90;;;;;;5053802;28;20457;-59
2024/01/19 05:30:41;;;;;;;40.07;18.40;;;0.80;99.90;;;;;;5053950;28;20470;-59
2024/01/19 05:33:09;;;;;;;39.83;19.37;;;0.80;99.90;;;;;;5053713;28;20503;-59
2024/01/19 05:35:36;;;;;;;34.37;20.27;;;0.90;99.90;;;;;;5053562;28;20512;-60
2024/01/19 05:38:04;;;;;;;35.67;20.50;;;0.90;99.90;;;;;;5053710;28;20444;-59
2024/01/19 05:40:30;;;;;;;39.50;20.70;;;0.90;99.90;;;;;;5053572;28;20466;-59
2024/01/19 05:42:57;;;;;;;33.50;19.17;;;0.90;99.90;;;;;;5053495;28;20453;-59
2024/01/19 05:45:24;;;;;;;34.47;20.47;;;0.90;99.90;;;;;;5053076;28;20959;-59
2024/01/19 05:47:51;;;;;;;32.30;19.23;;;0.80;99.90;;;;;;5053483;28;20472;-59
2024/01/19 05:50:19;;;;;;;44.93;20.20;;;0.80;99.90;;;;;;5053405;28;20472;-60
2024/01/19 05:52:46;;;;;;;37.30;20.30;;;0.80;99.90;;;;;;5052851;28;20461;-59
2024/01/19 05:55:12;;;;;;;33.63;19.70;;;0.90;99.90;;;;;;5053350;28;20566;-59
2024/01/19 05:57:39;;;;;;;40.77;20.20;;;0.80;99.90;;;;;;5053416;28;20464;-59
2024/01/19 06:00:07;;;;;;;36.07;20.33;;;0.80;99.90;;;;;;5053294;28;20514;-59
2024/01/19 06:02:34;;;;;;;39.27;21.27;;;0.80;99.90;;;;;;5053405;28;20466;-59
2024/01/19 06:05:01;;;;;;;34.80;22.10;;;0.80;99.90;;;;;;5054727;28;20524;-59
2024/01/19 06:07:30;;;;;;;36.40;20.57;;;0.80;99.90;;;;;;5057593;28;20448;-59
2024/01/19 06:09:57;;;;;;;38.27;20.03;;;0.90;99.90;;;;;;5057309;28;20441;-60
2024/01/19 06:12:23;;;;;;;35.90;21.97;;;0.90;99.90;;;;;;5057133;28;20445;-59
2024/01/19 06:14:50;;;;;;;32.40;21.73;;;0.90;99.90;;;;;;5057288;28;20449;-59
2024/01/19 06:17:16;;;;;;;34.67;21.23;;;0.90;99.90;;;;;;5057734;28;20453;-59
2024/01/19 06:19:43;;;;;;;29.90;19.27;;;0.90;99.90;;;;;;5057200;28;20448;-59
2024/01/19 06:22:11;;;;;;;38.33;20.67;;;0.90;99.90;;;;;;5056950;28;20994;-59
2024/01/19 06:24:39;;;;;;;31.50;19.10;;;0.90;99.90;;;;;;5057258;28;20450;-59
2024/01/19 06:27:05;;;;;;;32.60;20.40;;;0.80;99.90;;;;;;5057164;28;20437;-59
2024/01/19 06:29:32;;;;;;;28.73;17.70;;;0.90;99.90;;;;;;5057465;28;20454;-59
2024/01/19 06:31:59;;;;;;;30.43;19.97;;;0.90;99.90;;;;;;5057248;28;20517;-59
2024/01/19 06:34:26;;;;;;;37.20;20.73;;;0.90;99.90;;;;;;5057047;28;20456;-59
2024/01/19 06:36:53;;;;;;;34.03;19.20;;;0.80;99.90;;;;;;5056953;28;20492;-59
2024/01/19 06:39:19;;;;;;;33.10;20.43;;;0.80;99.90;;;;;;5057185;28;20456;-59
2024/01/19 06:41:48;;;;;;;34.93;19.80;;;0.80;99.90;;;;;;5056756;28;20461;-59
2024/01/19 06:44:15;;;;;;;37.20;21.70;;;0.80;99.90;;;;;;5057163;28;20484;-59
2024/01/19 06:46:44;;;;;;;37.90;22.37;;;0.70;99.90;;;;;;5056943;28;20842;-59
2024/01/19 06:49:11;;;;;;;33.73;21.30;;;0.80;99.90;;;;;;5056641;28;20449;-59
2024/01/19 06:51:38;;;;;;;35.53;21.37;;;0.80;99.90;;;;;;5056244;28;20872;-59
2024/01/19 06:54:05;;;;;;;36.47;21.43;;;0.70;99.90;;;;;;5056707;28;20426;-59
2024/01/19 06:56:31;;;;;;;31.37;19.70;;;0.80;99.90;;;;;;5056540;28;20516;-59
2024/01/19 06:58:59;;;;;;;36.90;21.57;;;0.70;99.90;;;;;;5056718;28;20467;-59
2024/01/19 07:01:26;;;;;;;34.83;19.87;;;0.80;99.90;;;;;;5056628;28;20553;-59
2024/01/19 07:03:53;;;;;;;39.93;20.70;;;0.70;99.90;;;;;;5056827;28;20815;-59
2024/01/19 07:06:19;;;;;;;40.63;21.77;;;0.70;99.90;;;;;;5056504;28;20446;-59
2024/01/19 07:08:46;;;;;;;40.87;22.03;;;0.50;99.90;;;;;;5056427;28;20437;-59
2024/01/19 07:11:13;;;;;;;37.90;21.43;;;0.60;99.90;;;;;;5056183;28;20466;-58
2024/01/19 07:13:40;;;;;;;40.70;22.33;;;0.40;99.90;;;;;;5056207;28;20452;-59
2024/01/19 07:16:08;;;;;;;34.40;20.47;;;0.40;99.90;;;;;;5055587;28;20876;-59
2024/01/19 07:18:36;;;;;;;39.83;22.53;;;0.30;99.90;;;;;;5056443;28;20491;-59
2024/01/19 07:21:02;;;;;;;40.07;22.07;;;0.30;99.90;;;;;;5056221;28;20458;-59
2024/01/19 07:23:29;;;;;;;44.10;23.97;;;0.30;99.90;;;;;;5056611;28;20452;-59
2024/01/19 07:25:55;;;;;;;43.83;22.60;;;0.30;99.90;;;;;;5056268;28;20439;-59
2024/01/19 07:28:23;;;;;;;34.80;20.70;;;0.30;99.90;;;;;;5056877;28;20837;-59
2024/01/19 07:30:49;;;;;;;42.93;22.50;;;0.40;99.90;;;;;;5056984;28;20846;-59
2024/01/19 07:33:17;;;;;;;43.43;22.27;;;0.40;99.90;;;;;;5057541;28;20450;-60
2024/01/19 07:35:44;;;;;;;42.30;21.70;;;0.40;99.90;;;;;;5057120;28;20485;-59
2024/01/19 07:38:11;;;;;;;42.53;22.13;;;0.40;99.90;;;;;;5057597;28;20453;-59
2024/01/19 07:40:37;;;;;;;40.43;22.73;;;0.40;99.90;;;;;;5057079;28;20461;-59
2024/01/19 07:43:04;;;;;;;37.33;22.50;;;0.30;99.90;;;;;;5058277;28;20445;-59
2024/01/19 07:45:31;;;;;;;44.33;24.47;;;0.30;99.90;;;;;;5058943;28;20838;-59
2024/01/19 07:47:57;;;;;;;41.90;21.80;;;0.30;99.90;;;;;;5059988;28;20445;-59
2024/01/19 07:50:26;;;;;;;48.00;24.60;;;0.30;99.90;;;;;;5058076;28;20472;-59
2024/01/19 07:52:53;;;;;;;46.73;24.40;;;0.40;99.90;;;;;;5058280;28;20453;-59
2024/01/19 07:55:20;;;;;;;54.03;24.67;;;0.40;99.90;;;;;;5055513;28;21008;-59
2024/01/19 07:57:46;;;;;;;45.37;25.30;;;0.40;99.90;;;;;;5055521;28;20446;-59
2024/01/19 08:00:14;;;;;;;40.43;23.90;;;0.40;99.90;;;;;;5055256;28;20541;-59
2024/01/19 08:02:41;;;;;;;41.43;23.70;;;0.40;99.90;;;;;;5055509;28;20623;-59
2024/01/19 08:05:08;;;;;;;45.23;25.50;;;0.40;99.90;;;;;;5056120;28;20445;-59
2024/01/19 08:07:37;;;;;;;42.40;23.80;;;0.30;99.90;;;;;;5054816;28;20800;-59
2024/01/19 08:10:04;;;;;;;39.97;23.90;;;0.40;99.90;;;;;;5054794;28;20871;-59
2024/01/19 08:12:31;;;;;;;39.80;22.57;;;0.40;99.90;;;;;;5055084;28;20448;-59
2024/01/19 08:14:58;;;;;;;42.60;24.60;;;0.40;99.90;;;;;;5055008;28;20452;-59
2024/01/19 08:17:24;;;;;;;39.00;22.90;;;0.40;99.90;;;;;;5054873;28;21007;-59
2024/01/19 08:19:51;;;;;;;43.70;24.20;;;0.40;99.90;;;;;;5055334;28;20452;-58
2024/01/19 08:22:18;;;;;;;43.60;24.27;;;0.40;99.90;;;;;;5054672;28;20951;-59
2024/01/19 08:24:46;;;;;;;40.50;22.63;;;0.40;99.90;;;;;;5054803;28;20446;-59
2024/01/19 08:27:12;;;;;;;42.63;24.60;;;0.30;99.90;;;;;;5054013;28;20442;-58
2024/01/19 08:29:39;;;;;;;45.83;25.67;;;0.40;99.90;;;;;;5054790;28;20454;-59
2024/01/19 08:32:06;;;;;;;43.23;25.50;;;0.40;99.90;;;;;;5054368;28;20465;-59
2024/01/19 08:34:32;;;;;;;44.83;24.30;;;0.50;99.90;;;;;;5054453;28;20821;-58
2024/01/19 08:36:59;;;;;;;37.93;21.23;;;0.50;99.90;;;;;;5054573;28;20485;-59
2024/01/19 08:39:26;;;;;;;43.47;23.50;;;0.50;99.90;;;;;;5054326;28;20800;-59
2024/01/19 08:41:54;;;;;;;42.50;23.30;;;0.50;99.90;;;;;;5054634;28;20814;-59
2024/01/19 08:44:21;;;;;;;38.00;23.90;;;0.40;99.90;;;;;;5054559;28;20449;-59
2024/01/19 08:46:48;;;;;;;45.87;21.63;;;0.40;99.90;;;;;;5054516;28;20446;-59
2024/01/19 08:49:15;;;;;;;39.90;23.73;;;0.40;99.90;;;;;;5054617;28;20452;-59
2024/01/19 08:51:43;;;;;;;38.93;24.63;;;0.40;99.90;;;;;;5054383;28;20476;-59
2024/01/19 08:54:10;;;;;;;43.33;25.87;;;0.40;99.90;;;;;;5054505;28;21015;-59
2024/01/19 08:56:37;;;;;;;39.87;24.70;;;0.50;99.90;;;;;;5054590;28;21030;-59
2024/01/19 08:59:05;;;;;;;45.53;25.23;;;0.50;99.90;;;;;;5054197;28;20826;-58
2024/01/19 09:01:34;;;;;;;47.20;25.03;;;0.60;99.90;;;;;;5054921;28;20492;-59
2024/01/19 09:04:00;;;;;;;48.60;24.67;;;0.70;99.90;;;;;;5054206;28;20452;-59
2024/01/19 09:06:27;;;;;;;42.73;23.97;;;0.80;99.90;;;;;;5054217;28;20856;-59
2024/01/19 09:08:54;;;;;;;42.20;23.83;;;0.80;99.90;;;;;;5054116;28;20453;-59
2024/01/19 09:11:20;;;;;;;39.23;22.93;;;0.80;99.90;;;;;;5053883;28;20461;-59
2024/01/19 09:13:47;;;;;;;39.73;22.67;;;0.70;99.90;;;;;;5053699;28;20452;-59
2024/01/19 09:16:15;;;;;;;41.27;21.67;;;0.80;99.90;;;;;;5053707;28;20998;-59
2024/01/19 09:18:42;;;;;;;43.67;22.93;;;0.80;99.90;;;;;;5054092;28;20437;-59
2024/01/19 09:21:15;;;;;;;43.73;23.70;;;0.70;99.90;;;;;;5054008;28;20469;-59
2024/01/19 09:23:42;;;;;;;42.23;23.47;;;0.70;99.90;;;;;;5054170;28;20438;-59
2024/01/19 09:26:09;;;;;;;38.50;22.20;;;0.70;99.90;;;;;;5053985;28;20437;-59
2024/01/19 09:28:35;;;;;;;41.10;22.87;;;0.70;99.90;;;;;;5054145;28;20438;-59
2024/01/19 09:31:02;;;;;;;42.60;22.40;;;0.70;99.90;;;;;;5053800;28;20469;-59
2024/01/19 09:33:30;;;;;;;45.37;24.47;;;0.70;99.90;;;;;;5053710;28;20449;-59
2024/01/19 09:35:57;;;;;;;39.57;24.60;;;0.70;99.90;;;;;;5053669;28;20967;-59
2024/01/19 09:38:23;;;;;;;47.50;26.67;;;0.70;99.90;;;;;;5053753;28;20442;-59
2024/01/19 09:40:52;;;;;;;41.47;25.50;;;0.70;99.90;;;;;;5053549;28;20461;-59
2024/01/19 09:43:18;;;;;;;44.97;24.20;;;0.80;99.90;;;;;;5054111;28;20437;-59
2024/01/19 09:45:48;;;;;;;43.47;25.73;;;0.80;99.90;;;;;;5053811;28;20442;-59
2024/01/19 09:48:22;;;;;;;43.67;25.27;;;0.80;99.90;;;;;;5054047;28;20445;-59
2024/01/19 09:50:53;;;;;;;44.97;25.63;;;0.80;99.90;;;;;;5053771;28;20504;-59
2024/01/19 09:53:23;;;;;;;51.73;25.93;;;0.70;99.90;;;;;;5053234;28;20948;-59
2024/01/19 09:55:50;;;;;;;45.27;25.77;;;0.80;99.90;;;;;;5053830;28;20844;-59
2024/01/19 09:58:19;;;;;;;46.07;26.20;;;0.80;99.90;;;;;;5053780;28;20477;-59
2024/01/19 10:00:48;;;;;;;47.50;26.07;;;0.70;99.90;;;;;;5053740;28;20484;-59
2024/01/19 10:03:17;;;;;;;58.33;27.53;;;0.80;99.90;;;;;;5053889;28;20441;-59
2024/01/19 10:05:44;;;;;;;50.47;26.40;;;0.90;99.90;;;;;;5053780;28;20460;-59
2024/01/19 10:08:13;;;;;;;54.73;27.30;;;0.90;99.90;;;;;;5053862;28;20468;-59
2024/01/19 10:10:42;;;;;;;46.10;26.73;;;0.90;99.90;;;;;;5053835;28;20473;-60
2024/01/19 10:13:09;;;;;;;47.00;25.17;;;0.90;99.90;;;;;;5053717;28;20441;-59
2024/01/19 10:15:35;;;;;;;46.20;24.90;;;1.00;99.90;;;;;;5053772;28;20446;-59
2024/01/19 10:18:05;;;;;;;44.63;24.67;;;1.10;99.90;;;;;;5053983;28;20485;-60
2024/01/19 10:20:32;;;;;;;45.27;26.53;;;1.10;99.90;;;;;;5053965;28;20473;-60
2024/01/19 10:23:21;;;;;;;53.20;25.90;;;1.10;99.90;;;;;;5054289;28;20446;-60
2024/01/19 10:25:48;;;;;;;44.47;25.13;;;1.10;99.90;;;;;;5053891;28;20430;-60
2024/01/19 10:28:29;;;;;;;47.03;25.17;;;1.10;99.90;;;;;;5053403;28;20445;-61
2024/01/19 10:31:14;;;;;;;44.93;23.90;;;1.20;99.90;;;;;;5053145;28;20458;-61
2024/01/19 10:33:49;;;;;;;42.00;21.70;;;1.30;99.90;;;;;;5053039;28;20425;-60
2024/01/19 10:36:16;;;;;;;43.40;24.87;;;1.30;99.90;;;;;;5053069;28;20429;-60
2024/01/19 10:38:44;;;;;;;44.93;25.40;;;1.30;99.90;;;;;;5053452;28;20868;-60
2024/01/19 10:41:15;;;;;;;45.10;23.67;;;1.20;99.90;;;;;;5053559;28;20470;-60
2024/01/19 10:43:42;;;;;;;49.70;22.33;;;1.30;99.90;;;;;;5055499;28;20430;-60
2024/01/19 10:46:22;;;;;;;52.37;21.97;;;1.30;99.90;;;;;;5055033;28;20453;-60
2024/01/19 10:48:50;;;;;;;46.33;23.67;;;1.30;99.90;;;;;;5053988;28;20951;-60
2024/01/19 10:51:18;;;;;;;35.80;21.17;;;1.30;99.90;;;;;;5055158;28;20472;-60
2024/01/19 10:53:48;;;;;;;37.67;21.93;;;1.30;99.90;;;;;;5057165;28;20460;-60
2024/01/19 10:56:19;;;;;;;43.37;24.93;;;1.30;99.90;;;;;;5057132;28;20480;-60
2024/01/19 10:58:46;;;;;;;40.47;22.50;;;1.40;99.90;;;;;;5057023;28;20444;-60
2024/01/19 11:01:14;;;;;;;41.40;21.93;;;1.40;99.90;;;;;;5056910;28;20458;-60
2024/01/19 11:03:41;;;;;;;42.90;22.80;;;1.40;99.90;;;;;;5056983;28;20438;-60
2024/01/19 11:06:08;;;;;;;46.00;21.87;;;1.40;99.90;;;;;;5056803;28;20531;-61
2024/01/19 11:08:35;;;;;;;37.97;22.47;;;1.40;99.90;;;;;;5056991;28;20444;-60
2024/01/19 11:11:05;;;;;;;38.63;22.03;;;1.40;99.90;;;;;;5056852;28;20470;-60
2024/01/19 11:13:37;;;;;;;43.50;22.77;;;1.40;99.90;;;;;;5056736;28;20437;-60
2024/01/19 11:16:11;;;;;;;38.27;20.63;;;1.50;99.90;;;;;;5057014;28;20430;-60
2024/01/19 11:18:38;;;;;;;40.90;21.17;;;1.50;99.90;;;;;;5057083;28;20473;-60
2024/01/19 11:21:05;;;;;;;39.53;22.73;;;1.50;99.90;;;;;;5056358;28;20470;-60
2024/01/19 11:23:33;;;;;;;39.47;20.40;;;1.50;99.90;;;;;;5056792;28;20437;-60
2024/01/19 11:26:08;;;;;;;37.90;21.80;;;1.50;99.90;;;;;;5056903;28;20451;-60
2024/01/19 11:28:42;;;;;;;40.60;22.23;;;1.50;99.90;;;;;;5056651;28;20444;-60
2024/01/19 11:31:14;;;;;;;42.93;22.17;;;1.60;99.90;;;;;;5056397;28;20458;-61
2024/01/19 11:33:41;;;;;;;43.30;22.93;;;1.70;99.90;;;;;;5056153;28;20430;-61
2024/01/19 11:36:08;;;;;;;40.00;19.83;;;1.70;99.90;;;;;;5055987;28;20954;-61
2024/01/19 11:38:45;;;;;;;44.17;20.30;;;1.80;99.90;;;;;;5056304;28;20561;-61
2024/01/19 11:41:44;;;;;;;38.97;21.43;;;1.90;99.90;;;;;;5056135;28;20457;-61
2024/01/19 11:44:31;;;;;;;32.97;20.97;;;2.00;99.90;;;;;;5056264;28;20434;-61
2024/01/19 11:46:58;;;;;;;39.50;21.77;;;2.10;99.90;;;;;;5055893;28;20442;-61
2024/01/19 11:49:47;;;;;;;37.30;20.97;;;2.10;99.90;;;;;;5056213;28;20864;-62
2024/01/19 11:52:42;;;;;;;38.47;19.57;;;2.20;99.90;;;;;;5056050;28;20496;-62
2024/01/19 11:55:40;;;;;;;29.87;20.00;;;2.30;99.90;;;;;;5056140;28;20904;-62
2024/01/19 11:58:31;;;;;;;31.03;19.60;;;2.50;99.90;;;;;;5056127;28;20517;-62
2024/01/19 12:00:59;;;;;;;41.47;21.33;;;2.50;99.90;;;;;;5055873;28;20480;-62
2024/01/19 12:03:26;;;;;;;36.50;21.87;;;2.40;99.90;;;;;;5055902;28;20445;-62
2024/01/19 12:05:56;;;;;;;39.63;21.97;;;2.40;99.90;;;;;;5055343;28;20492;-62
2024/01/19 12:08:22;;;;;;;34.67;20.30;;;2.50;99.90;;;;;;5055435;28;20477;-62
2024/01/19 12:11:04;;;;;;;36.20;19.90;;;2.50;99.90;;;;;;5055446;28;20808;-62
2024/01/19 12:13:33;;;;;;;31.57;20.13;;;2.50;99.90;;;;;;5055447;28;20505;-62
2024/01/19 12:16:01;;;;;;;40.23;20.30;;;2.50;99.90;;;;;;5054752;28;20440;-62
2024/01/19 12:18:28;;;;;;;47.40;21.13;;;2.60;99.90;;;;;;5055152;28;20504;-62
2024/01/19 12:20:56;;;;;;;32.73;20.20;;;2.60;99.90;;;;;;5055089;28;20462;-62
2024/01/19 12:23:23;;;;;;;37.57;20.07;;;2.70;99.90;;;;;;5055187;28;20445;-62
2024/01/19 12:25:56;;;;;;;35.50;21.00;;;2.80;99.90;;;;;;5054915;28;20452;-63
2024/01/19 12:28:23;;;;;;;30.77;18.73;;;2.90;99.90;;;;;;5054871;28;20422;-62
2024/01/19 12:30:52;;;;;;;37.13;20.20;;;2.90;99.90;;;;;;5054573;28;20462;-62
2024/01/19 12:33:21;;;;;;;30.67;18.97;;;2.90;99.90;;;;;;5054825;28;20472;-62
2024/01/19 12:35:48;;;;;;;35.27;18.90;;;2.90;99.90;;;;;;5055300;28;20461;-62
2024/01/19 12:38:16;;;;;;;30.40;18.20;;;2.90;99.90;;;;;;5054407;28;20843;-62
2024/01/19 12:40:44;;;;;;;32.37;18.43;;;2.80;99.90;;;;;;5054519;28;20466;-62